sensor_id;sensor_type;location;lat;lon;timestamp;pressure;altitude;pressure_sealevel;temperature;humidity
66689;BME280;53587;59.318;18.084;2022-10-31T00:03:40;101782.47;;;15.59;nan
66689;BME280;53587;59.318;18.084;2022-10-31T00:06:06;101773.97;;;15.44;nan
66689;BME280;53587;59.318;18.084;2022-10-31T00:08:31;101775.59;;;15.91;nan
66689;BME280;53587;59.318;18.084;2022-10-31T00:10:56;101774.88;;;16.79;nan
66689;BME280;53587;59.318;18.084;2022-10-31T00:13:21;101762.41;;;17.53;nan
66689;BME280;53587;59.318;18.084;2022-10-31T00:15:47;101760.13;;;18.21;nan
66689;BME280;53587;59.318;18.084;2022-10-31T00:18:12;101756.50;;;18.68;nan
66689;BME280;53587;59.318;18.084;2022-10-31T00:20:37;101761.66;;;17.63;nan
66689;BME280;53587;59.318;18.084;2022-10-31T00:23:03;101760.22;;;15.44;nan
66689;BME280;53587;59.318;18.084;2022-10-31T00:25:32;101765.56;;;15.34;nan
66689;BME280;53587;59.318;18.084;2022-10-31T00:27:57;101758.00;;;16.09;nan
66689;BME280;53587;59.318;18.084;2022-10-31T00:30:22;101756.78;;;16.88;nan
66689;BME280;53587;59.318;18.084;2022-10-31T00:32:47;101766.31;;;17.63;nan
66689;BME280;53587;59.318;18.084;2022-10-31T00:35:13;101768.75;;;18.29;nan
66689;BME280;53587;59.318;18.084;2022-10-31T00:37:38;101760.66;;;18.71;nan
66689;BME280;53587;59.318;18.084;2022-10-31T00:40:03;101762.16;;;18.99;nan
66689;BME280;53587;59.318;18.084;2022-10-31T00:42:28;101760.28;;;17.06;nan
66689;BME280;53587;59.318;18.084;2022-10-31T00:44:54;101766.88;;;15.48;nan
66689;BME280;53587;59.318;18.084;2022-10-31T00:47:19;101771.63;;;15.36;nan
66689;BME280;53587;59.318;18.084;2022-10-31T00:49:44;101773.63;;;16.25;nan
66689;BME280;53587;59.318;18.084;2022-10-31T00:52:09;101763.28;;;16.99;nan
66689;BME280;53587;59.318;18.084;2022-10-31T00:54:35;101763.16;;;17.81;nan
66689;BME280;53587;59.318;18.084;2022-10-31T00:57:00;101756.41;;;18.42;nan
66689;BME280;53587;59.318;18.084;2022-10-31T00:59:25;101751.00;;;18.73;nan
66689;BME280;53587;59.318;18.084;2022-10-31T01:01:50;101751.41;;;18.39;nan
66689;BME280;53587;59.318;18.084;2022-10-31T01:04:15;101752.75;;;15.56;nan
66689;BME280;53587;59.318;18.084;2022-10-31T01:06:41;101757.25;;;15.28;nan
66689;BME280;53587;59.318;18.084;2022-10-31T01:09:06;101760.16;;;15.90;nan
66689;BME280;53587;59.318;18.084;2022-10-31T01:11:32;101756.84;;;16.71;nan
66689;BME280;53587;59.318;18.084;2022-10-31T01:13:57;101757.94;;;17.47;nan
66689;BME280;53587;59.318;18.084;2022-10-31T01:16:23;101748.00;;;18.16;nan
66689;BME280;53587;59.318;18.084;2022-10-31T01:18:48;101752.59;;;18.64;nan
66689;BME280;53587;59.318;18.084;2022-10-31T01:21:15;101740.88;;;18.94;nan
66689;BME280;53587;59.318;18.084;2022-10-31T01:23:41;101743.41;;;17.25;nan
66689;BME280;53587;59.318;18.084;2022-10-31T01:26:16;101754.91;;;15.37;nan
66689;BME280;53587;59.318;18.084;2022-10-31T01:28:56;101751.75;;;15.28;nan
66689;BME280;53587;59.318;18.084;2022-10-31T01:31:22;101752.56;;;16.14;nan
66689;BME280;53587;59.318;18.084;2022-10-31T01:33:48;101746.03;;;16.87;nan
66689;BME280;53587;59.318;18.084;2022-10-31T01:38:38;101731.50;;;18.32;nan
66689;BME280;53587;59.318;18.084;2022-10-31T01:41:04;101722.81;;;18.66;nan
66689;BME280;53587;59.318;18.084;2022-10-31T01:43:45;101718.28;;;18.39;nan
66689;BME280;53587;59.318;18.084;2022-10-31T01:46:11;101734.44;;;15.45;nan
66689;BME280;53587;59.318;18.084;2022-10-31T01:48:37;101745.06;;;15.24;nan
66689;BME280;53587;59.318;18.084;2022-10-31T01:51:03;101754.25;;;15.81;nan
66689;BME280;53587;59.318;18.084;2022-10-31T01:53:29;101744.13;;;16.65;nan
66689;BME280;53587;59.318;18.084;2022-10-31T01:55:55;101745.22;;;17.41;nan
66689;BME280;53587;59.318;18.084;2022-10-31T01:58:22;101739.13;;;18.14;nan
66689;BME280;53587;59.318;18.084;2022-10-31T02:00:51;101744.31;;;18.59;nan
66689;BME280;53587;59.318;18.084;2022-10-31T02:03:17;101741.91;;;18.88;nan
66689;BME280;53587;59.318;18.084;2022-10-31T02:05:43;101740.28;;;17.16;nan
66689;BME280;53587;59.318;18.084;2022-10-31T02:08:12;101753.38;;;15.29;nan
66689;BME280;53587;59.318;18.084;2022-10-31T02:10:39;101752.72;;;15.22;nan
66689;BME280;53587;59.318;18.084;2022-10-31T02:13:05;101746.19;;;15.91;nan
66689;BME280;53587;59.318;18.084;2022-10-31T02:15:32;101749.41;;;16.67;nan
66689;BME280;53587;59.318;18.084;2022-10-31T02:17:57;101742.22;;;17.48;nan
66689;BME280;53587;59.318;18.084;2022-10-31T02:20:23;101740.00;;;18.20;nan
66689;BME280;53587;59.318;18.084;2022-10-31T02:31:21;101736.88;;;16.81;nan
66689;BME280;53587;59.318;18.084;2022-10-31T02:33:21;101752.91;;;15.33;nan
66689;BME280;53587;59.318;18.084;2022-10-31T02:35:54;101748.66;;;15.59;nan
66689;BME280;53587;59.318;18.084;2022-10-31T02:38:39;101744.28;;;16.53;nan
66689;BME280;53587;59.318;18.084;2022-10-31T02:43:44;101738.03;;;18.10;nan
66689;BME280;53587;59.318;18.084;2022-10-31T02:49:00;101747.19;;;18.95;nan
66689;BME280;53587;59.318;18.084;2022-10-31T02:51:28;101746.56;;;16.62;nan
66689;BME280;53587;59.318;18.084;2022-10-31T02:53:55;101755.22;;;15.24;nan
66689;BME280;53587;59.318;18.084;2022-10-31T02:56:20;101757.88;;;15.19;nan
66689;BME280;53587;59.318;18.084;2022-10-31T02:59:04;101759.72;;;16.15;nan
66689;BME280;53587;59.318;18.084;2022-10-31T03:06:41;101750.31;;;18.40;nan
66689;BME280;53587;59.318;18.084;2022-10-31T03:09:16;101754.28;;;18.75;nan
66689;BME280;53587;59.318;18.084;2022-10-31T03:11:50;101758.81;;;19.02;nan
66689;BME280;53587;59.318;18.084;2022-10-31T03:14:21;101760.78;;;17.58;nan
66689;BME280;53587;59.318;18.084;2022-10-31T03:16:49;101765.78;;;15.32;nan
66689;BME280;53587;59.318;18.084;2022-10-31T03:19:19;101768.34;;;15.22;nan
66689;BME280;53587;59.318;18.084;2022-10-31T03:21:53;101754.28;;;16.20;nan
66689;BME280;53587;59.318;18.084;2022-10-31T03:24:19;101754.97;;;16.94;nan
66689;BME280;53587;59.318;18.084;2022-10-31T03:26:47;101756.53;;;17.77;nan
66689;BME280;53587;59.318;18.084;2022-10-31T03:29:15;101746.16;;;18.38;nan
66689;BME280;53587;59.318;18.084;2022-10-31T03:31:46;101749.34;;;18.72;nan
66689;BME280;53587;59.318;18.084;2022-10-31T03:34:13;101748.34;;;18.99;nan
66689;BME280;53587;59.318;18.084;2022-10-31T03:36:40;101752.41;;;18.81;nan
66689;BME280;53587;59.318;18.084;2022-10-31T03:39:07;101750.84;;;15.91;nan
66689;BME280;53587;59.318;18.084;2022-10-31T03:41:35;101749.41;;;15.37;nan
66689;BME280;53587;59.318;18.084;2022-10-31T03:44:02;101755.41;;;15.51;nan
66689;BME280;53587;59.318;18.084;2022-10-31T03:46:29;101762.38;;;16.49;nan
66689;BME280;53587;59.318;18.084;2022-10-31T03:48:54;101756.31;;;17.19;nan
66689;BME280;53587;59.318;18.084;2022-10-31T03:51:25;101742.34;;;17.96;nan
66689;BME280;53587;59.318;18.084;2022-10-31T03:54:01;101734.06;;;18.49;nan
66689;BME280;53587;59.318;18.084;2022-10-31T03:56:39;101745.22;;;18.85;nan
66689;BME280;53587;59.318;18.084;2022-10-31T04:01:32;101739.25;;;17.22;nan
66689;BME280;53587;59.318;18.084;2022-10-31T04:03:59;101743.75;;;15.44;nan
66689;BME280;53587;59.318;18.084;2022-10-31T04:06:25;101744.06;;;15.30;nan
66689;BME280;53587;59.318;18.084;2022-10-31T04:08:55;101734.47;;;16.18;nan
66689;BME280;53587;59.318;18.084;2022-10-31T04:11:22;101732.09;;;16.94;nan
66689;BME280;53587;59.318;18.084;2022-10-31T04:13:49;101733.06;;;17.75;nan
66689;BME280;53587;59.318;18.084;2022-10-31T04:16:16;101730.59;;;18.79;nan
66689;BME280;53587;59.318;18.084;2022-10-31T04:18:41;101727.38;;;19.55;nan
66689;BME280;53587;59.318;18.084;2022-10-31T04:21:07;101720.88;;;18.03;nan
66689;BME280;53587;59.318;18.084;2022-10-31T04:23:33;101717.94;;;16.85;nan
66689;BME280;53587;59.318;18.084;2022-10-31T04:25:59;101714.78;;;16.98;nan
66689;BME280;53587;59.318;18.084;2022-10-31T04:28:24;101721.69;;;18.03;nan
66689;BME280;53587;59.318;18.084;2022-10-31T04:30:50;101709.94;;;19.18;nan
66689;BME280;53587;59.318;18.084;2022-10-31T04:33:15;101708.13;;;18.50;nan
66689;BME280;53587;59.318;18.084;2022-10-31T04:35:40;101709.09;;;16.83;nan
66689;BME280;53587;59.318;18.084;2022-10-31T04:38:05;101713.72;;;18.07;nan
66689;BME280;53587;59.318;18.084;2022-10-31T04:40:31;101711.91;;;19.18;nan
66689;BME280;53587;59.318;18.084;2022-10-31T04:42:56;101707.41;;;18.80;nan
66689;BME280;53587;59.318;18.084;2022-10-31T04:45:21;101707.66;;;17.02;nan
66689;BME280;53587;59.318;18.084;2022-10-31T04:47:46;101697.38;;;18.54;nan
66689;BME280;53587;59.318;18.084;2022-10-31T04:50:12;101700.56;;;19.29;nan
66689;BME280;53587;59.318;18.084;2022-10-31T04:52:40;101697.78;;;18.19;nan
66689;BME280;53587;59.318;18.084;2022-10-31T04:55:06;101691.94;;;18.06;nan
66689;BME280;53587;59.318;18.084;2022-10-31T04:57:32;101698.91;;;19.18;nan
66689;BME280;53587;59.318;18.084;2022-10-31T04:59:57;101700.19;;;18.74;nan
66689;BME280;53587;59.318;18.084;2022-10-31T05:02:22;101673.41;;;17.20;nan
66689;BME280;53587;59.318;18.084;2022-10-31T05:04:47;101680.69;;;17.75;nan
66689;BME280;53587;59.318;18.084;2022-10-31T05:07:12;101683.16;;;18.93;nan
66689;BME280;53587;59.318;18.084;2022-10-31T05:09:38;101684.28;;;19.18;nan
66689;BME280;53587;59.318;18.084;2022-10-31T05:12:03;101675.84;;;17.92;nan
66689;BME280;53587;59.318;18.084;2022-10-31T05:14:28;101670.06;;;17.18;nan
66689;BME280;53587;59.318;18.084;2022-10-31T05:16:53;101681.13;;;18.62;nan
66689;BME280;53587;59.318;18.084;2022-10-31T05:19:19;101680.38;;;19.34;nan
66689;BME280;53587;59.318;18.084;2022-10-31T05:21:44;101674.97;;;18.40;nan
66689;BME280;53587;59.318;18.084;2022-10-31T05:24:09;101674.94;;;17.06;nan
66689;BME280;53587;59.318;18.084;2022-10-31T05:26:34;101675.81;;;18.40;nan
66689;BME280;53587;59.318;18.084;2022-10-31T05:28:59;101677.63;;;19.34;nan
66689;BME280;53587;59.318;18.084;2022-10-31T05:31:25;101672.03;;;18.77;nan
66689;BME280;53587;59.318;18.084;2022-10-31T05:33:50;101672.19;;;17.38;nan
66689;BME280;53587;59.318;18.084;2022-10-31T05:36:15;101674.00;;;18.08;nan
66689;BME280;53587;59.318;18.084;2022-10-31T05:38:40;101677.63;;;19.19;nan
66689;BME280;53587;59.318;18.084;2022-10-31T05:41:06;101673.16;;;18.87;nan
66689;BME280;53587;59.318;18.084;2022-10-31T05:43:31;101667.56;;;17.49;nan
66689;BME280;53587;59.318;18.084;2022-10-31T05:45:56;101674.97;;;16.84;nan
66689;BME280;53587;59.318;18.084;2022-10-31T05:48:22;101667.22;;;18.31;nan
66689;BME280;53587;59.318;18.084;2022-10-31T05:50:47;101667.69;;;19.18;nan
66689;BME280;53587;59.318;18.084;2022-10-31T05:53:13;101659.88;;;18.78;nan
66689;BME280;53587;59.318;18.084;2022-10-31T05:55:38;101655.88;;;17.32;nan
66689;BME280;53587;59.318;18.084;2022-10-31T05:58:05;101663.75;;;16.90;nan
66689;BME280;53587;59.318;18.084;2022-10-31T06:00:30;101666.94;;;18.28;nan
66689;BME280;53587;59.318;18.084;2022-10-31T06:02:57;101666.03;;;19.17;nan
66689;BME280;53587;59.318;18.084;2022-10-31T06:05:22;101659.59;;;18.64;nan
66689;BME280;53587;59.318;18.084;2022-10-31T06:07:47;101669.22;;;17.50;nan
66689;BME280;53587;59.318;18.084;2022-10-31T06:10:13;101672.84;;;17.18;nan
66689;BME280;53587;59.318;18.084;2022-10-31T06:12:38;101681.63;;;18.54;nan
66689;BME280;53587;59.318;18.084;2022-10-31T06:15:05;101675.41;;;19.26;nan
66689;BME280;53587;59.318;18.084;2022-10-31T06:17:31;101664.25;;;18.59;nan
66689;BME280;53587;59.318;18.084;2022-10-31T06:19:56;101669.03;;;17.25;nan
66689;BME280;53587;59.318;18.084;2022-10-31T06:22:22;101671.78;;;17.25;nan
66689;BME280;53587;59.318;18.084;2022-10-31T06:24:47;101678.06;;;18.59;nan
66689;BME280;53587;59.318;18.084;2022-10-31T06:27:12;101673.78;;;19.25;nan
66689;BME280;53587;59.318;18.084;2022-10-31T06:29:37;101685.47;;;18.43;nan
66689;BME280;53587;59.318;18.084;2022-10-31T06:32:03;101691.16;;;17.35;nan
66689;BME280;53587;59.318;18.084;2022-10-31T06:34:28;101694.13;;;17.61;nan
66689;BME280;53587;59.318;18.084;2022-10-31T06:36:53;101691.06;;;18.79;nan
66689;BME280;53587;59.318;18.084;2022-10-31T06:39:18;101688.41;;;19.20;nan
66689;BME280;53587;59.318;18.084;2022-10-31T06:41:44;101675.19;;;18.23;nan
66689;BME280;53587;59.318;18.084;2022-10-31T06:44:09;101682.56;;;17.26;nan
66689;BME280;53587;59.318;18.084;2022-10-31T06:46:34;101684.84;;;17.77;nan
66689;BME280;53587;59.318;18.084;2022-10-31T06:48:59;101684.75;;;18.83;nan
66689;BME280;53587;59.318;18.084;2022-10-31T06:51:25;101692.00;;;19.26;nan
66689;BME280;53587;59.318;18.084;2022-10-31T06:53:50;101683.16;;;18.19;nan
66689;BME280;53587;59.318;18.084;2022-10-31T06:56:15;101691.25;;;17.13;nan
66689;BME280;53587;59.318;18.084;2022-10-31T06:58:40;101692.09;;;17.94;nan
66689;BME280;53587;59.318;18.084;2022-10-31T07:01:06;101691.44;;;18.93;nan
66689;BME280;53587;59.318;18.084;2022-10-31T07:03:31;101698.91;;;19.03;nan
66689;BME280;53587;59.318;18.084;2022-10-31T07:05:56;101695.06;;;17.77;nan
66689;BME280;53587;59.318;18.084;2022-10-31T07:08:22;101695.84;;;17.02;nan
66689;BME280;53587;59.318;18.084;2022-10-31T07:10:51;101698.88;;;18.18;nan
66689;BME280;53587;59.318;18.084;2022-10-31T07:13:16;101704.16;;;19.30;nan
66689;BME280;53587;59.318;18.084;2022-10-31T07:15:42;101693.63;;;19.06;nan
66689;BME280;53587;59.318;18.084;2022-10-31T07:18:08;101704.16;;;17.77;nan
66689;BME280;53587;59.318;18.084;2022-10-31T07:20:34;101695.03;;;18.19;nan
66689;BME280;53587;59.318;18.084;2022-10-31T07:22:59;101711.88;;;19.07;nan
66689;BME280;53587;59.318;18.084;2022-10-31T07:25:25;101708.50;;;18.85;nan
66689;BME280;53587;59.318;18.084;2022-10-31T07:27:51;101700.16;;;17.58;nan
66689;BME280;53587;59.318;18.084;2022-10-31T07:30:16;101699.47;;;17.40;nan
66689;BME280;53587;59.318;18.084;2022-10-31T07:32:44;101707.34;;;18.60;nan
66689;BME280;53587;59.318;18.084;2022-10-31T07:35:10;101705.25;;;19.34;nan
66689;BME280;53587;59.318;18.084;2022-10-31T07:37:36;101711.69;;;18.45;nan
66689;BME280;53587;59.318;18.084;2022-10-31T07:40:02;101698.38;;;17.41;nan
66689;BME280;53587;59.318;18.084;2022-10-31T07:42:28;101698.03;;;17.70;nan
66689;BME280;53587;59.318;18.084;2022-10-31T07:44:53;101694.44;;;18.91;nan
66689;BME280;53587;59.318;18.084;2022-10-31T07:47:18;101698.06;;;19.33;nan
66689;BME280;53587;59.318;18.084;2022-10-31T07:49:43;101689.28;;;18.26;nan
66689;BME280;53587;59.318;18.084;2022-10-31T07:52:09;101696.91;;;17.33;nan
66689;BME280;53587;59.318;18.084;2022-10-31T07:54:34;101704.97;;;18.21;nan
66689;BME280;53587;59.318;18.084;2022-10-31T07:56:59;101709.66;;;19.20;nan
66689;BME280;53587;59.318;18.084;2022-10-31T07:59:24;101705.13;;;18.62;nan
66689;BME280;53587;59.318;18.084;2022-10-31T08:01:50;101692.88;;;17.41;nan
66689;BME280;53587;59.318;18.084;2022-10-31T08:04:16;101709.53;;;17.24;nan
66689;BME280;53587;59.318;18.084;2022-10-31T08:06:41;101689.66;;;18.56;nan
66689;BME280;53587;59.318;18.084;2022-10-31T08:09:06;101700.84;;;19.43;nan
66689;BME280;53587;59.318;18.084;2022-10-31T08:11:31;101695.50;;;18.75;nan
66689;BME280;53587;59.318;18.084;2022-10-31T08:13:56;101701.66;;;17.38;nan
66689;BME280;53587;59.318;18.084;2022-10-31T08:16:22;101702.22;;;17.40;nan
66689;BME280;53587;59.318;18.084;2022-10-31T08:18:47;101721.72;;;18.67;nan
66689;BME280;53587;59.318;18.084;2022-10-31T08:21:12;101731.78;;;19.40;nan
66689;BME280;53587;59.318;18.084;2022-10-31T08:23:37;101712.28;;;18.63;nan
66689;BME280;53587;59.318;18.084;2022-10-31T08:26:03;101706.75;;;17.57;nan
66689;BME280;53587;59.318;18.084;2022-10-31T08:28:28;101715.31;;;17.60;nan
66689;BME280;53587;59.318;18.084;2022-10-31T08:30:53;101720.44;;;18.95;nan
66689;BME280;53587;59.318;18.084;2022-10-31T08:33:18;101715.75;;;19.17;nan
66689;BME280;53587;59.318;18.084;2022-10-31T08:35:44;101700.19;;;18.00;nan
66689;BME280;53587;59.318;18.084;2022-10-31T08:38:10;101698.75;;;17.17;nan
66689;BME280;53587;59.318;18.084;2022-10-31T08:40:35;101710.69;;;18.09;nan
66689;BME280;53587;59.318;18.084;2022-10-31T08:43:20;101712.16;;;19.11;nan
66689;BME280;53587;59.318;18.084;2022-10-31T08:45:48;101716.28;;;18.93;nan
66689;BME280;53587;59.318;18.084;2022-10-31T08:48:14;101704.00;;;17.57;nan
66689;BME280;53587;59.318;18.084;2022-10-31T08:50:40;101706.06;;;18.25;nan
66689;BME280;53587;59.318;18.084;2022-10-31T08:53:06;101706.94;;;19.25;nan
66689;BME280;53587;59.318;18.084;2022-10-31T08:55:33;101705.25;;;18.93;nan
66689;BME280;53587;59.318;18.084;2022-10-31T08:57:58;101711.53;;;17.71;nan
66689;BME280;53587;59.318;18.084;2022-10-31T09:00:24;101714.78;;;17.26;nan
66689;BME280;53587;59.318;18.084;2022-10-31T09:02:59;101711.09;;;18.38;nan
66689;BME280;53587;59.318;18.084;2022-10-31T09:05:25;101712.47;;;19.25;nan
66689;BME280;53587;59.318;18.084;2022-10-31T09:07:50;101705.13;;;18.62;nan
66689;BME280;53587;59.318;18.084;2022-10-31T09:10:15;101711.13;;;17.52;nan
66689;BME280;53587;59.318;18.084;2022-10-31T09:12:40;101709.41;;;17.41;nan
66689;BME280;53587;59.318;18.084;2022-10-31T09:15:06;101718.44;;;18.86;nan
66689;BME280;53587;59.318;18.084;2022-10-31T09:17:31;101708.03;;;19.29;nan
66689;BME280;53587;59.318;18.084;2022-10-31T09:19:57;101701.44;;;18.30;nan
66689;BME280;53587;59.318;18.084;2022-10-31T09:22:22;101698.94;;;17.43;nan
66689;BME280;53587;59.318;18.084;2022-10-31T09:24:47;101698.50;;;17.24;nan
66689;BME280;53587;59.318;18.084;2022-10-31T09:27:12;101710.03;;;18.44;nan
66689;BME280;53587;59.318;18.084;2022-10-31T09:29:38;101729.84;;;19.36;nan
66689;BME280;53587;59.318;18.084;2022-10-31T09:32:03;101722.38;;;19.21;nan
66689;BME280;53587;59.318;18.084;2022-10-31T09:34:28;101725.75;;;17.91;nan
66689;BME280;53587;59.318;18.084;2022-10-31T09:36:54;101724.63;;;17.16;nan
66689;BME280;53587;59.318;18.084;2022-10-31T09:39:19;101714.97;;;17.89;nan
66689;BME280;53587;59.318;18.084;2022-10-31T09:52:26;101701.84;;;18.75;nan
66689;BME280;53587;59.318;18.084;2022-10-31T09:54:54;101712.47;;;19.25;nan
66689;BME280;53587;59.318;18.084;2022-10-31T09:57:26;101710.22;;;17.79;nan
66689;BME280;53587;59.318;18.084;2022-10-31T09:59:52;101707.00;;;16.68;nan
66689;BME280;53587;59.318;18.084;2022-10-31T10:07:17;101715.97;;;18.84;nan
66689;BME280;53587;59.318;18.084;2022-10-31T10:09:45;101721.41;;;18.00;nan
66689;BME280;53587;59.318;18.084;2022-10-31T10:17:37;101702.69;;;18.07;nan
66689;BME280;53587;59.318;18.084;2022-10-31T10:20:14;101696.78;;;18.46;nan
66689;BME280;53587;59.318;18.084;2022-10-31T10:22:43;101701.13;;;17.41;nan
66689;BME280;53587;59.318;18.084;2022-10-31T10:30:21;101720.16;;;18.23;nan
66689;BME280;53587;59.318;18.084;2022-10-31T10:32:51;101725.69;;;19.12;nan
66689;BME280;53587;59.318;18.084;2022-10-31T10:37:42;101717.16;;;16.40;nan
66689;BME280;53587;59.318;18.084;2022-10-31T10:42:38;101722.59;;;18.88;nan
66689;BME280;53587;59.318;18.084;2022-10-31T10:45:22;101717.88;;;18.83;nan
66689;BME280;53587;59.318;18.084;2022-10-31T10:48:09;101710.59;;;17.55;nan
66689;BME280;53587;59.318;18.084;2022-10-31T10:50:39;101714.63;;;19.02;nan
66689;BME280;53587;59.318;18.084;2022-10-31T10:58:17;101716.00;;;17.08;nan
66689;BME280;53587;59.318;18.084;2022-10-31T11:00:43;101710.69;;;18.82;nan
66689;BME280;53587;59.318;18.084;2022-10-31T11:03:11;101716.03;;;19.36;nan
66689;BME280;53587;59.318;18.084;2022-10-31T11:08:27;101717.22;;;16.95;nan
66689;BME280;53587;59.318;18.084;2022-10-31T11:11:00;101715.91;;;18.69;nan
66689;BME280;53587;59.318;18.084;2022-10-31T11:13:26;101714.66;;;19.23;nan
66689;BME280;53587;59.318;18.084;2022-10-31T11:16:03;101714.16;;;17.94;nan
66689;BME280;53587;59.318;18.084;2022-10-31T11:18:34;101733.75;;;17.92;nan
66689;BME280;53587;59.318;18.084;2022-10-31T11:21:03;101723.75;;;19.13;nan
66689;BME280;53587;59.318;18.084;2022-10-31T11:23:30;101720.94;;;20.16;nan
66689;BME280;53587;59.318;18.084;2022-10-31T11:26:00;101727.38;;;19.39;nan
66689;BME280;53587;59.318;18.084;2022-10-31T11:28:27;101712.00;;;18.59;nan
66689;BME280;53587;59.318;18.084;2022-10-31T11:31:17;101727.25;;;18.82;nan
66689;BME280;53587;59.318;18.084;2022-10-31T11:36:20;101719.06;;;19.81;nan
66689;BME280;53587;59.318;18.084;2022-10-31T11:38:47;101722.91;;;19.95;nan
66689;BME280;53587;59.318;18.084;2022-10-31T11:41:28;101722.66;;;19.55;nan
66689;BME280;53587;59.318;18.084;2022-10-31T11:44:12;101726.78;;;19.89;nan
66689;BME280;53587;59.318;18.084;2022-10-31T11:46:41;101718.75;;;19.98;nan
66689;BME280;53587;59.318;18.084;2022-10-31T11:49:43;101716.75;;;20.24;nan
66689;BME280;53587;59.318;18.084;2022-10-31T11:52:25;101715.72;;;19.89;nan
66689;BME280;53587;59.318;18.084;2022-10-31T11:54:58;101714.31;;;20.02;nan
66689;BME280;53587;59.318;18.084;2022-10-31T11:57:31;101726.78;;;19.99;nan
66689;BME280;53587;59.318;18.084;2022-10-31T11:59:58;101716.16;;;20.32;nan
66689;BME280;53587;59.318;18.084;2022-10-31T12:02:24;101700.69;;;20.31;nan
66689;BME280;53587;59.318;18.084;2022-10-31T12:04:59;101710.63;;;20.37;nan
66689;BME280;53587;59.318;18.084;2022-10-31T12:07:27;101714.09;;;20.58;nan
66689;BME280;53587;59.318;18.084;2022-10-31T12:09:53;101706.84;;;20.73;nan
66689;BME280;53587;59.318;18.084;2022-10-31T12:39:09;101698.03;;;19.90;nan
66689;BME280;53587;59.318;18.084;2022-10-31T12:44:30;101706.81;;;20.07;nan
66689;BME280;53587;59.318;18.084;2022-10-31T12:52:16;101703.00;;;19.93;nan
66689;BME280;53587;59.318;18.084;2022-10-31T12:57:45;101689.31;;;20.33;nan
66689;BME280;53587;59.318;18.084;2022-10-31T13:00:15;101680.16;;;20.32;nan
66689;BME280;53587;59.318;18.084;2022-10-31T13:02:53;101695.38;;;20.40;nan
66689;BME280;53587;59.318;18.084;2022-10-31T13:05:27;101680.69;;;20.39;nan
66689;BME280;53587;59.318;18.084;2022-10-31T13:08:04;101689.34;;;20.27;nan
66689;BME280;53587;59.318;18.084;2022-10-31T13:10:40;101678.00;;;20.24;nan
66689;BME280;53587;59.318;18.084;2022-10-31T13:13:19;101683.91;;;20.02;nan
66689;BME280;53587;59.318;18.084;2022-10-31T13:15:58;101689.59;;;20.31;nan
66689;BME280;53587;59.318;18.084;2022-10-31T13:18:35;101695.41;;;20.35;nan
66689;BME280;53587;59.318;18.084;2022-10-31T13:21:08;101676.91;;;20.20;nan
66689;BME280;53587;59.318;18.084;2022-10-31T13:23:37;101683.53;;;20.24;nan
66689;BME280;53587;59.318;18.084;2022-10-31T13:26:09;101680.81;;;20.19;nan
66689;BME280;53587;59.318;18.084;2022-10-31T13:28:47;101694.59;;;20.24;nan
66689;BME280;53587;59.318;18.084;2022-10-31T13:31:13;101700.34;;;20.38;nan
66689;BME280;53587;59.318;18.084;2022-10-31T13:33:46;101696.78;;;20.32;nan
66689;BME280;53587;59.318;18.084;2022-10-31T13:38:58;101701.25;;;20.23;nan
66689;BME280;53587;59.318;18.084;2022-10-31T13:42:01;101694.66;;;20.08;nan
66689;BME280;53587;59.318;18.084;2022-10-31T13:44:29;101696.28;;;20.15;nan
66689;BME280;53587;59.318;18.084;2022-10-31T13:46:57;101692.28;;;20.47;nan
66689;BME280;53587;59.318;18.084;2022-10-31T13:54:38;101680.78;;;20.24;nan
66689;BME280;53587;59.318;18.084;2022-10-31T13:59:38;101688.72;;;20.41;nan
66689;BME280;53587;59.318;18.084;2022-10-31T14:02:14;101687.03;;;20.45;nan
66689;BME280;53587;59.318;18.084;2022-10-31T14:04:47;101686.59;;;20.22;nan
66689;BME280;53587;59.318;18.084;2022-10-31T14:07:15;101676.66;;;20.16;nan
66689;BME280;53587;59.318;18.084;2022-10-31T14:12:34;101679.16;;;20.07;nan
66689;BME280;53587;59.318;18.084;2022-10-31T14:15:17;101696.25;;;20.20;nan
66689;BME280;53587;59.318;18.084;2022-10-31T14:20:23;101692.06;;;20.38;nan
66689;BME280;53587;59.318;18.084;2022-10-31T14:22:49;101683.22;;;20.31;nan
66689;BME280;53587;59.318;18.084;2022-10-31T14:25:34;101674.94;;;20.25;nan
66689;BME280;53587;59.318;18.084;2022-10-31T14:28:02;101669.47;;;20.15;nan
66689;BME280;53587;59.318;18.084;2022-10-31T14:30:29;101678.34;;;20.07;nan
66689;BME280;53587;59.318;18.084;2022-10-31T14:33:01;101677.41;;;20.32;nan
66689;BME280;53587;59.318;18.084;2022-10-31T14:35:42;101678.97;;;20.54;nan
66689;BME280;53587;59.318;18.084;2022-10-31T14:41:29;101677.94;;;20.34;nan
66689;BME280;53587;59.318;18.084;2022-10-31T14:47:19;101670.22;;;20.31;nan
66689;BME280;53587;59.318;18.084;2022-10-31T14:50:11;101662.47;;;20.28;nan
66689;BME280;53587;59.318;18.084;2022-10-31T14:52:46;101663.63;;;20.22;nan
66689;BME280;53587;59.318;18.084;2022-10-31T14:55:13;101663.06;;;20.25;nan
66689;BME280;53587;59.318;18.084;2022-10-31T14:57:47;101661.38;;;20.29;nan
66689;BME280;53587;59.318;18.084;2022-10-31T15:00:18;101655.53;;;20.31;nan
66689;BME280;53587;59.318;18.084;2022-10-31T15:05:29;101652.75;;;20.36;nan
66689;BME280;53587;59.318;18.084;2022-10-31T15:07:57;101650.75;;;20.47;nan
66689;BME280;53587;59.318;18.084;2022-10-31T15:10:29;101651.75;;;20.66;nan
66689;BME280;53587;59.318;18.084;2022-10-31T15:13:30;101665.69;;;20.51;nan
66689;BME280;53587;59.318;18.084;2022-10-31T15:15:55;101660.75;;;20.42;nan